createdAt,value
2019-05-03T00:00:44.981Z,8.54
2019-05-03T00:01:57.621Z,8.56
2019-05-03T00:03:09.314Z,8.45
2019-05-03T00:04:19.707Z,8.5
2019-05-03T00:05:30.006Z,8.57
2019-05-03T00:06:40.196Z,8.44
2019-05-03T00:07:50.334Z,8.49
2019-05-03T00:09:01.556Z,8.41
2019-05-03T00:10:12.825Z,8.45
2019-05-03T00:11:24.454Z,8.35
2019-05-03T00:12:35.180Z,8.34
2019-05-03T00:13:47.332Z,8.36
2019-05-03T00:14:57.775Z,8.41
2019-05-03T00:16:08.043Z,8.39
2019-05-03T00:17:19.570Z,8.46
2019-05-03T00:18:29.542Z,8.44
2019-05-03T00:19:42.208Z,8.38
2019-05-03T00:20:52.674Z,8.35
2019-05-03T00:22:04.450Z,8.44
2019-05-03T00:23:14.555Z,8.32
2019-05-03T00:24:25.114Z,8.34
2019-05-03T00:25:37.523Z,8.35
2019-05-03T00:26:49.166Z,8.39
2019-05-03T00:27:59.085Z,8.41
2019-05-03T00:29:09.602Z,8.35
2019-05-03T00:30:22.408Z,8.31
2019-05-03T00:31:34.242Z,8.35
2019-05-03T00:32:44.972Z,8.42
2019-05-03T00:33:56.246Z,8.35
2019-05-03T00:35:07.541Z,8.38
2019-05-03T00:36:19.623Z,8.39
2019-05-03T00:37:30.090Z,8.32
2019-05-03T00:38:41.872Z,8.36
2019-05-03T00:39:52.350Z,8.31
2019-05-03T00:41:04.230Z,8.39
2019-05-03T00:42:14.390Z,8.39
2019-05-03T00:43:24.706Z,8.42
2019-05-03T00:44:36.537Z,8.36
2019-05-03T00:45:47.446Z,8.38
2019-05-03T00:46:59.290Z,8.31
2019-05-03T00:48:09.917Z,8.35
2019-05-03T00:49:19.808Z,8.38
2019-05-03T00:50:32.024Z,8.36
2019-05-03T00:51:42.434Z,8.28
2019-05-03T00:52:53.926Z,8.34
2019-05-03T00:54:04.551Z,8.26
2019-05-03T00:55:22.054Z,8.31
2019-05-03T00:56:32.227Z,8.34
2019-05-03T00:57:43.949Z,8.36
2019-05-03T00:58:55.440Z,8.28
2019-05-03T01:00:07.369Z,8.34
2019-05-03T01:01:17.692Z,8.32
2019-05-03T01:02:28.817Z,8.26
2019-05-03T01:03:39.566Z,8.16
2019-05-03T01:04:49.540Z,8.21
2019-05-03T01:05:59.316Z,8.2
2019-05-03T01:07:11.557Z,8.2
2019-05-03T01:08:21.989Z,8.27
2019-05-03T01:09:34.118Z,8.18
2019-05-03T01:10:44.583Z,8.16
2019-05-03T01:11:54.905Z,8.16
2019-05-03T01:13:06.436Z,8.16
2019-05-03T01:14:17.649Z,8.2
2019-05-03T01:15:27.950Z,8.13
2019-05-03T01:16:39.622Z,8.16
2019-05-03T01:17:50.134Z,8.16
2019-05-03T01:19:00.190Z,8.06
2019-05-03T01:20:11.931Z,8.06
2019-05-03T01:21:22.484Z,8.06
2019-05-03T01:22:34.522Z,8.13
2019-05-03T01:23:46.479Z,8.05
2019-05-03T01:24:57.836Z,8.03
2019-05-03T01:26:08.008Z,8.03
2019-05-03T01:27:19.252Z,8.05
2019-05-03T01:28:29.469Z,7.93
2019-05-03T01:29:39.778Z,7.91
2019-05-03T01:30:51.768Z,8.01
2019-05-03T01:32:02.279Z,7.98
2019-05-03T01:33:14.267Z,7.95
2019-05-03T01:34:24.430Z,7.91
2019-05-03T01:35:34.761Z,7.93
2019-05-03T01:36:45.151Z,7.84
2019-05-03T01:37:56.870Z,7.81
2019-05-03T01:39:07.889Z,7.87
2019-05-03T01:40:18.072Z,7.85
2019-05-03T01:41:29.669Z,7.83
2019-05-03T01:42:40.023Z,7.9
2019-05-03T01:43:49.815Z,7.88
2019-05-03T01:45:01.714Z,7.8
2019-05-03T01:46:11.963Z,7.81
2019-05-03T01:47:21.894Z,7.75
2019-05-03T01:48:32.160Z,7.83
2019-05-03T01:49:42.627Z,7.78
2019-05-03T01:50:54.280Z,7.77
2019-05-03T01:52:04.712Z,7.78
2019-05-03T01:53:14.949Z,7.77
2019-05-03T01:54:27.704Z,7.84
2019-05-03T01:55:49.229Z,7.78
2019-05-03T01:57:04.879Z,7.75
2019-05-03T01:58:14.933Z,7.75
2019-05-03T01:59:25.141Z,7.78
2019-05-03T02:00:36.644Z,7.8
2019-05-03T02:01:47.557Z,7.72
2019-05-03T02:02:58.975Z,7.75
2019-05-03T02:04:09.098Z,7.75
2019-05-03T02:05:19.881Z,7.72
2019-05-03T02:06:31.701Z,7.74
2019-05-03T02:07:42.235Z,7.75
2019-05-03T02:08:54.368Z,7.74
2019-05-03T02:10:05.262Z,7.72
2019-05-03T02:11:17.113Z,7.59
2019-05-03T02:12:27.492Z,7.64
2019-05-03T02:13:37.473Z,7.56
2019-05-03T02:14:47.775Z,7.62
2019-05-03T02:15:59.331Z,7.62
2019-05-03T02:17:09.953Z,7.64
2019-05-03T02:18:19.902Z,7.61
2019-05-03T02:19:30.025Z,7.61
2019-05-03T02:20:41.750Z,7.55
2019-05-03T02:21:52.311Z,7.51
2019-05-03T02:23:02.827Z,7.55
2019-05-03T02:24:14.271Z,7.55
2019-05-03T02:25:24.301Z,7.48
2019-05-03T02:26:34.018Z,7.5
2019-05-03T02:27:44.791Z,7.5
2019-05-03T02:28:55.258Z,7.51
2019-05-03T02:30:08.082Z,7.46
2019-05-03T02:31:23.090Z,7.48
2019-05-03T02:32:35.580Z,7.48
2019-05-03T02:33:48.156Z,7.51
2019-05-03T02:35:02.535Z,7.47
2019-05-03T02:36:15.941Z,7.44
2019-05-03T02:37:28.573Z,7.48
2019-05-03T02:38:42.893Z,7.44
2019-05-03T02:39:55.541Z,7.39
2019-05-03T02:41:07.394Z,7.41
2019-05-03T02:42:20.728Z,7.39
2019-05-03T02:43:31.865Z,7.4
2019-05-03T02:44:46.096Z,7.37
2019-05-03T02:45:59.098Z,7.44
2019-05-03T02:47:10.685Z,7.46
2019-05-03T02:48:21.431Z,7.41
2019-05-03T02:49:35.223Z,7.33
2019-05-03T02:50:47.641Z,7.36
2019-05-03T02:52:00.308Z,7.43
2019-05-03T02:53:11.722Z,7.37
2019-05-03T02:54:26.470Z,7.32
2019-05-03T02:55:38.841Z,7.37
2019-05-03T02:56:50.766Z,7.32
2019-05-03T02:58:05.688Z,7.37
2019-05-03T02:59:18.338Z,7.39
2019-05-03T03:00:31.547Z,7.39
2019-05-03T03:01:46.291Z,7.37
2019-05-03T03:02:57.941Z,7.33
2019-05-03T03:04:10.700Z,7.33
2019-05-03T03:05:25.241Z,7.36
2019-05-03T03:06:36.637Z,7.4
2019-05-03T03:07:48.536Z,7.37
2019-05-03T03:09:00.995Z,7.32
2019-05-03T03:10:16.006Z,7.32
2019-05-03T03:11:28.576Z,7.29
2019-05-03T03:12:40.855Z,7.29
2019-05-03T03:13:55.169Z,7.25
2019-05-03T03:15:08.468Z,7.33
2019-05-03T03:16:27.595Z,7.33
2019-05-03T03:17:40.913Z,7.28
2019-05-03T03:18:55.671Z,7.29
2019-05-03T03:20:07.950Z,7.28
2019-05-03T03:21:20.808Z,7.28
2019-05-03T03:22:36.079Z,7.31
2019-05-03T03:23:48.558Z,7.31
2019-05-03T03:25:01.368Z,7.33
2019-05-03T03:26:15.445Z,7.31
2019-05-03T03:27:50.157Z,7.33
2019-05-03T03:29:01.234Z,7.29
2019-05-03T03:30:17.072Z,7.18
2019-05-03T03:31:31.085Z,7.25
2019-05-03T03:32:50.458Z,7.21
2019-05-03T03:34:10.330Z,7.22
2019-05-03T03:35:31.847Z,7.1
2019-05-03T03:37:11.515Z,7.04
2019-05-03T03:38:25.883Z,7.05
2019-05-03T03:39:38.690Z,6.97
2019-05-03T03:40:51.062Z,6.95
2019-05-03T03:42:07.789Z,6.97
2019-05-03T03:43:20.479Z,6.92
2019-05-03T03:44:31.290Z,6.97
2019-05-03T03:45:45.428Z,6.86
2019-05-03T03:46:58.438Z,6.86
2019-05-03T03:48:10.777Z,6.83
2019-05-03T03:49:23.158Z,6.85
2019-05-03T03:50:35.841Z,6.89
2019-05-03T03:51:48.020Z,6.86
2019-05-03T03:53:00.492Z,6.74
2019-05-03T03:54:12.056Z,6.71
2019-05-03T03:55:22.690Z,6.67
2019-05-03T03:56:40.813Z,6.67
2019-05-03T03:58:20.886Z,6.67
2019-05-03T03:59:36.265Z,6.54
2019-05-03T04:00:48.872Z,6.6
2019-05-03T04:02:00.814Z,6.57
2019-05-03T04:03:15.718Z,6.57
2019-05-03T04:04:28.385Z,6.54
2019-05-03T04:05:40.977Z,6.49
2019-05-03T04:06:56.927Z,6.52
2019-05-03T04:08:11.874Z,6.49
2019-05-03T04:09:25.505Z,6.38
2019-05-03T04:10:37.760Z,6.47
2019-05-03T04:11:48.814Z,6.44
2019-05-03T04:13:00.863Z,6.35
2019-05-03T04:14:15.943Z,6.43
2019-05-03T04:15:28.397Z,6.47
2019-05-03T04:16:41.096Z,6.36
2019-05-03T04:17:55.881Z,6.35
2019-05-03T04:19:08.285Z,6.36
2019-05-03T04:20:21.037Z,6.28
2019-05-03T04:21:35.732Z,6.28
2019-05-03T04:22:47.767Z,6.31
2019-05-03T04:24:00.423Z,6.26
2019-05-03T04:25:11.324Z,6.31
2019-05-03T04:26:27.442Z,6.29
2019-05-03T04:27:41.425Z,6.26
2019-05-03T04:28:55.861Z,6.31
2019-05-03T04:30:08.406Z,6.34
2019-05-03T04:31:20.162Z,6.26
2019-05-03T04:32:35.851Z,6.32
2019-05-03T04:33:47.360Z,6.25
2019-05-03T04:34:58.514Z,6.34
2019-05-03T04:36:10.734Z,6.29
2019-05-03T04:37:26.284Z,6.25
2019-05-03T04:38:37.830Z,6.26
2019-05-03T04:39:50.899Z,6.19
2019-05-03T04:41:05.804Z,6.25
2019-05-03T04:42:18.990Z,6.25
2019-05-03T04:43:31.252Z,6.12
2019-05-03T04:44:45.556Z,6.16
2019-05-03T04:45:58.188Z,6.16
2019-05-03T04:47:12.102Z,6.22
2019-05-03T04:48:25.274Z,6.2
2019-05-03T04:49:36.157Z,6.26
2019-05-03T04:50:48.216Z,6.19
2019-05-03T04:52:00.990Z,6.26
2019-05-03T04:53:15.927Z,6.22
2019-05-03T04:54:27.802Z,6.2
2019-05-03T04:55:41.095Z,6.26
2019-05-03T04:56:52.158Z,6.29
2019-05-03T04:58:04.755Z,6.28
2019-05-03T04:59:15.847Z,6.28
2019-05-03T05:00:28.327Z,6.32
2019-05-03T05:01:40.947Z,6.32
2019-05-03T05:02:55.113Z,6.28
2019-05-03T05:04:07.720Z,6.29
2019-05-03T05:05:20.208Z,6.25
2019-05-03T05:06:31.665Z,6.36
2019-05-03T05:07:42.454Z,6.38
2019-05-03T05:08:55.100Z,6.39
2019-05-03T05:10:07.530Z,6.31
2019-05-03T05:11:20.226Z,6.41
2019-05-03T05:12:31.665Z,6.43
2019-05-03T05:13:45.562Z,6.43
2019-05-03T05:14:58.759Z,6.44
2019-05-03T05:16:11.020Z,6.39
2019-05-03T05:17:26.074Z,6.47
2019-05-03T05:18:37.920Z,6.47
2019-05-03T05:19:49.172Z,6.41
2019-05-03T05:21:00.303Z,6.35
2019-05-03T05:22:11.913Z,6.39
2019-05-03T05:23:24.950Z,6.35
2019-05-03T05:24:37.030Z,6.38
2019-05-03T05:25:47.082Z,6.35
2019-05-03T05:26:57.473Z,6.36
2019-05-03T05:28:09.481Z,6.34
2019-05-03T05:29:20.030Z,6.38
2019-05-03T05:30:30.644Z,6.32
2019-05-03T05:31:44.564Z,6.34
2019-05-03T05:32:55.300Z,6.25
2019-05-03T05:34:05.720Z,6.31
2019-05-03T05:35:20.212Z,6.29
2019-05-03T05:36:32.360Z,6.34
2019-05-03T05:37:41.670Z,6.26
2019-05-03T05:38:52.033Z,6.22
2019-05-03T05:40:02.823Z,6.31
2019-05-03T05:41:12.917Z,6.35
2019-05-03T05:42:24.862Z,6.35
2019-05-03T05:43:35.662Z,6.31
2019-05-03T05:44:47.756Z,6.32
2019-05-03T05:46:00.904Z,6.39
2019-05-03T05:47:12.660Z,6.36
2019-05-03T05:48:24.402Z,6.35
2019-05-03T05:49:35.087Z,6.47
2019-05-03T05:50:47.254Z,6.39
2019-05-03T05:51:59.374Z,6.41
2019-05-03T05:53:10.252Z,6.36
2019-05-03T05:54:20.554Z,6.46
2019-05-03T05:55:34.226Z,6.41
2019-05-03T05:56:44.487Z,6.5
2019-05-03T05:58:10.664Z,6.53
2019-05-03T05:59:20.993Z,6.52
2019-05-03T06:00:32.252Z,6.54
2019-05-03T06:01:45.469Z,6.64
2019-05-03T06:02:57.566Z,6.52
2019-05-03T06:04:09.865Z,6.56
2019-05-03T06:05:20.696Z,6.7
2019-05-03T06:06:34.706Z,6.72
2019-05-03T06:07:46.724Z,6.7
2019-05-03T06:08:57.194Z,6.71
2019-05-03T06:10:07.729Z,6.8
2019-05-03T06:11:21.650Z,6.74
2019-05-03T06:12:35.224Z,6.7
2019-05-03T06:13:46.911Z,6.7
2019-05-03T06:14:56.900Z,6.68
2019-05-03T06:16:07.591Z,6.72
2019-05-03T06:17:19.369Z,6.8
2019-05-03T06:18:29.978Z,6.78
2019-05-03T06:19:40.622Z,6.75
2019-05-03T06:20:54.285Z,6.71
2019-05-03T06:22:05.085Z,6.78
2019-05-03T06:23:16.576Z,6.85
2019-05-03T06:24:27.421Z,6.92
2019-05-03T06:25:37.847Z,6.95
2019-05-03T06:26:49.200Z,6.96
2019-05-03T06:27:59.948Z,7.01
2019-05-03T06:29:27.270Z,7.03
2019-05-03T06:30:37.566Z,7.01
2019-05-03T06:31:49.739Z,7.03
2019-05-03T06:33:00.346Z,7.03
2019-05-03T06:34:10.403Z,7.1
2019-05-03T06:35:22.084Z,7.13
2019-05-03T06:36:32.091Z,7.15
2019-05-03T06:37:42.780Z,7.36
2019-05-03T06:38:54.731Z,7.36
2019-05-03T06:40:08.298Z,7.31
2019-05-03T06:41:21.110Z,7.33
2019-05-03T06:42:32.184Z,7.36
2019-05-03T06:43:57.455Z,7.39
2019-05-03T06:45:17.549Z,7.37
2019-05-03T06:46:35.538Z,7.43
2019-05-03T06:47:52.351Z,7.43
2019-05-03T06:49:11.044Z,7.61
2019-05-03T06:50:29.615Z,7.69
2019-05-03T06:51:45.489Z,7.78
2019-05-03T06:53:05.301Z,7.69
2019-05-03T06:54:31.276Z,7.75
2019-05-03T06:55:49.623Z,7.75
2019-05-03T06:57:10.763Z,7.78
2019-05-03T06:58:38.966Z,7.84
2019-05-03T06:59:50.171Z,7.77
2019-05-03T07:01:00.297Z,7.8
2019-05-03T07:02:12.206Z,7.78
2019-05-03T07:03:22.528Z,7.9
2019-05-03T07:04:34.582Z,8.01
2019-05-03T07:05:45.082Z,7.91
2019-05-03T07:06:55.162Z,8.03
2019-05-03T07:08:06.920Z,8.05
2019-05-03T07:09:16.915Z,7.87
2019-05-03T07:10:27.392Z,7.87
2019-05-03T07:11:39.378Z,7.81
2019-05-03T07:12:50.425Z,7.84
2019-05-03T07:14:02.437Z,7.81
2019-05-03T07:15:14.469Z,7.81
2019-05-03T07:16:25.285Z,7.87
2019-05-03T07:17:37.404Z,7.95
2019-05-03T07:18:47.969Z,7.93
2019-05-03T07:20:01.775Z,7.99
2019-05-03T07:21:12.065Z,7.98
2019-05-03T07:22:24.302Z,7.93
2019-05-03T07:23:34.911Z,7.98
2019-05-03T07:24:47.985Z,8.01
2019-05-03T07:26:00.072Z,8.03
2019-05-03T07:27:10.680Z,8.13
2019-05-03T07:28:21.158Z,8.2
2019-05-03T07:29:32.497Z,8.32
2019-05-03T07:30:45.337Z,8.32
2019-05-03T07:31:57.278Z,8.36
2019-05-03T07:33:07.339Z,8.21
2019-05-03T07:34:18.099Z,8.18
2019-05-03T07:35:30.112Z,8.11
2019-05-03T07:36:40.673Z,8.03
2019-05-03T07:37:52.382Z,7.99
2019-05-03T07:39:02.843Z,7.99
2019-05-03T07:40:14.626Z,8.03
2019-05-03T07:41:28.912Z,8.05
2019-05-03T07:42:40.571Z,8.09
2019-05-03T07:43:52.312Z,8.14
2019-05-03T07:45:04.807Z,8.27
2019-05-03T07:46:17.062Z,8.35
2019-05-03T07:47:29.445Z,8.38
2019-05-03T07:48:40.293Z,8.38
2019-05-03T07:49:50.729Z,8.54
2019-05-03T07:51:02.560Z,8.56
2019-05-03T07:52:14.717Z,8.59
2019-05-03T07:53:25.157Z,8.49
2019-05-03T07:54:37.225Z,8.36
2019-05-03T07:55:47.892Z,8.35
2019-05-03T07:56:59.711Z,8.41
2019-05-03T07:58:10.466Z,8.39
2019-05-03T07:59:22.639Z,8.53
2019-05-03T08:00:34.336Z,8.59
2019-05-03T08:01:45.535Z,8.66
2019-05-03T08:02:57.193Z,8.66
2019-05-03T08:04:07.926Z,8.66
2019-05-03T08:05:17.995Z,8.63
2019-05-03T08:06:29.880Z,8.66
2019-05-03T08:07:43.911Z,8.68
2019-05-03T08:08:54.634Z,8.77
2019-05-03T08:10:05.382Z,8.89
2019-05-03T08:11:16.981Z,8.89
2019-05-03T08:12:27.197Z,8.96
2019-05-03T08:13:38.040Z,8.97
2019-05-03T08:14:49.935Z,8.97
2019-05-03T08:16:00.478Z,8.99
2019-05-03T08:17:11.265Z,9.05
2019-05-03T08:18:22.897Z,8.93
2019-05-03T08:19:35.506Z,8.81
2019-05-03T08:20:47.585Z,8.78
2019-05-03T08:21:59.146Z,8.82
2019-05-03T08:23:23.223Z,8.81
2019-05-03T08:24:40.124Z,9
2019-05-03T08:25:55.598Z,8.95
2019-05-03T08:27:07.573Z,9.12
2019-05-03T08:28:19.294Z,9.31
2019-05-03T08:29:29.923Z,9.27
2019-05-03T08:30:40.578Z,9.22
2019-05-03T08:31:52.140Z,9.24
2019-05-03T08:33:02.316Z,9.31
2019-05-03T08:34:15.142Z,9.36
2019-05-03T08:35:26.777Z,9.37
2019-05-03T08:36:37.385Z,9.26
2019-05-03T08:37:47.730Z,9.24
2019-05-03T08:39:01.299Z,9.22
2019-05-03T08:40:12.876Z,9.31
2019-05-03T08:41:24.695Z,9.26
2019-05-03T08:42:35.142Z,9.36
2019-05-03T08:43:47.056Z,9.47
2019-05-03T08:44:57.549Z,9.4
2019-05-03T08:46:09.748Z,9.56
2019-05-03T08:47:20.412Z,9.66
2019-05-03T08:48:32.458Z,9.58
2019-05-03T08:49:44.869Z,9.4
2019-05-03T08:50:55.458Z,9.45
2019-05-03T08:52:07.752Z,9.47
2019-05-03T08:53:20.398Z,9.69
2019-05-03T08:54:34.684Z,9.88
2019-05-03T08:55:44.998Z,10.09
2019-05-03T08:56:55.612Z,10.23
2019-05-03T08:58:07.457Z,10.25
2019-05-03T08:59:32.638Z,10.42
2019-05-03T09:00:45.284Z,10.53
2019-05-03T09:01:57.342Z,10.58
2019-05-03T09:03:24.549Z,10.68
2019-05-03T09:04:46.292Z,10.86
2019-05-03T09:05:58.935Z,10.89
2019-05-03T09:07:10.436Z,10.92
2019-05-03T09:08:24.698Z,10.98
2019-05-03T09:09:37.219Z,10.98
2019-05-03T09:10:48.492Z,11.23
2019-05-03T09:12:00.242Z,11.86
2019-05-03T09:13:14.524Z,12.4
2019-05-03T09:14:38.660Z,12.51
2019-05-03T09:15:57.768Z,12.05
2019-05-03T09:17:09.869Z,11.97
2019-05-03T09:18:22.421Z,12.03
2019-05-03T09:19:34.675Z,11.8
2019-05-03T09:20:44.917Z,11.43
2019-05-03T09:21:57.261Z,11.22
2019-05-03T09:23:07.888Z,11.23
2019-05-03T09:24:20.059Z,11.08
2019-05-03T09:25:31.994Z,11.38
2019-05-03T09:26:44.893Z,11.56
2019-05-03T09:27:55.191Z,11.73
2019-05-03T09:29:05.602Z,11.44
2019-05-03T09:30:16.769Z,11.37
2019-05-03T09:31:27.183Z,11.31
2019-05-03T09:32:37.455Z,11.58
2019-05-03T09:33:47.680Z,11.73
2019-05-03T09:35:00.006Z,11.99
2019-05-03T09:36:10.572Z,12.21
2019-05-03T09:37:22.401Z,12.07
2019-05-03T09:38:32.486Z,12.29
2019-05-03T09:39:46.992Z,12.5
2019-05-03T09:40:57.114Z,12.83
2019-05-03T09:42:09.490Z,12.48
2019-05-03T09:43:20.808Z,12.5
2019-05-03T09:44:34.743Z,12.33
2019-05-03T09:45:45.647Z,12.3
2019-05-03T09:46:57.212Z,12.33
2019-05-03T09:48:08.200Z,12.36
2019-05-03T09:49:21.420Z,12.25
2019-05-03T09:50:33.073Z,12.02
2019-05-03T09:51:44.416Z,11.89
2019-05-03T09:52:55.371Z,11.78
2019-05-03T09:54:07.677Z,11.95
2019-05-03T09:55:20.099Z,12
2019-05-03T09:56:30.807Z,11.85
2019-05-03T09:57:41.752Z,11.7
2019-05-03T09:58:51.885Z,11.8
2019-05-03T10:00:07.281Z,12.02
2019-05-03T10:01:17.634Z,12.26
2019-05-03T10:02:29.544Z,12.62
2019-05-03T10:03:41.365Z,12.87
2019-05-03T10:04:55.157Z,13.23
2019-05-03T10:06:05.405Z,13.36
2019-05-03T10:07:17.674Z,13.54
2019-05-03T10:08:30.326Z,13.52
2019-05-03T10:09:41.087Z,13.37
2019-05-03T10:10:52.453Z,13.27
2019-05-03T10:12:02.434Z,13.55
2019-05-03T10:13:27.005Z,13.89
2019-05-03T10:14:37.263Z,14.07
2019-05-03T10:15:47.534Z,13.76
2019-05-03T10:16:59.607Z,13.33
2019-05-03T10:18:15.695Z,13.05
2019-05-03T10:19:45.030Z,12.86
2019-05-03T10:20:56.073Z,12.86
2019-05-03T10:22:08.098Z,12.87
2019-05-03T10:23:19.771Z,12.83
2019-05-03T10:24:29.842Z,13.01
2019-05-03T10:25:42.751Z,12.94
2019-05-03T10:26:55.078Z,12.93
2019-05-03T10:28:05.728Z,12.95
2019-05-03T10:29:17.696Z,12.98
2019-05-03T10:30:27.685Z,12.95
2019-05-03T10:31:37.894Z,12.95
2019-05-03T10:32:50.137Z,12.65
2019-05-03T10:34:00.108Z,12.23
2019-05-03T10:35:10.882Z,11.93
2019-05-03T10:36:24.904Z,11.86
2019-05-03T10:37:35.802Z,11.89
2019-05-03T10:38:48.267Z,12.12
2019-05-03T10:40:00.819Z,12.53
2019-05-03T10:41:15.359Z,12.93
2019-05-03T10:42:26.856Z,13.13
2019-05-03T10:43:37.687Z,13.09
2019-05-03T10:44:50.078Z,13.3
2019-05-03T10:46:00.825Z,13.16
2019-05-03T10:47:14.175Z,12.7
2019-05-03T10:48:24.997Z,12.39
2019-05-03T10:49:35.312Z,12.14
2019-05-03T10:50:45.299Z,12.14
2019-05-03T10:51:59.499Z,12.32
2019-05-03T10:53:10.914Z,12.72
2019-05-03T10:54:22.738Z,13.13
2019-05-03T10:55:32.722Z,13.47
2019-05-03T10:56:45.180Z,13.33
2019-05-03T10:57:56.665Z,12.84
2019-05-03T10:59:08.535Z,12.87
2019-05-03T11:00:56.657Z,12.62
2019-05-03T11:02:06.747Z,12.66
2019-05-03T11:03:16.964Z,12.44
2019-05-03T11:04:26.973Z,12.26
2019-05-03T11:05:37.256Z,12.17
2019-05-03T11:06:48.238Z,12
2019-05-03T11:08:00.238Z,11.96
2019-05-03T11:09:10.685Z,11.96
2019-05-03T11:10:22.756Z,11.88
2019-05-03T11:11:35.006Z,11.91
2019-05-03T11:12:44.925Z,12
2019-05-03T11:13:54.914Z,11.96
2019-05-03T11:15:04.878Z,11.99
2019-05-03T11:16:15.290Z,11.83
2019-05-03T11:17:25.604Z,11.8
2019-05-03T11:18:37.009Z,11.8
2019-05-03T11:19:47.888Z,11.86
2019-05-03T11:20:59.906Z,11.96
2019-05-03T11:22:10.715Z,12.18
2019-05-03T11:23:22.022Z,12.44
2019-05-03T11:24:34.648Z,12.63
2019-05-03T11:25:45.326Z,12.68
2019-05-03T11:26:55.774Z,12.5
2019-05-03T11:28:09.650Z,12.33
2019-05-03T11:29:20.675Z,12.36
2019-05-03T11:30:32.417Z,12.23
2019-05-03T11:31:44.514Z,12.02
2019-05-03T11:32:55.584Z,11.77
2019-05-03T11:34:05.653Z,11.56
2019-05-03T11:35:17.468Z,11.53
2019-05-03T11:36:27.758Z,11.62
2019-05-03T11:37:40.114Z,11.59
2019-05-03T11:38:50.640Z,11.83
2019-05-03T11:40:00.889Z,12.11
2019-05-03T11:41:12.760Z,12.44
2019-05-03T11:42:40.071Z,12.91
2019-05-03T11:43:52.358Z,12.93
2019-05-03T11:45:02.324Z,12.98
2019-05-03T11:46:12.041Z,12.98
2019-05-03T11:47:24.840Z,12.88
2019-05-03T11:48:37.306Z,13.2
2019-05-03T11:49:47.886Z,13.49
2019-05-03T11:50:59.626Z,13.64
2019-05-03T11:52:11.378Z,13.93
2019-05-03T11:53:25.143Z,13.86
2019-05-03T11:54:35.868Z,13.75
2019-05-03T11:55:48.759Z,13.82
2019-05-03T11:57:00.552Z,13.67
2019-05-03T11:58:12.394Z,13.33
2019-05-03T11:59:22.321Z,12.86
2019-05-03T12:00:33.838Z,12.69
2019-05-03T12:01:44.869Z,12.45
2019-05-03T12:02:58.069Z,12.37
2019-05-03T12:04:10.178Z,12.33
2019-05-03T12:05:20.641Z,12.29
2019-05-03T12:06:31.672Z,12.33
2019-05-03T12:07:45.556Z,12.3
2019-05-03T12:08:57.812Z,12.21
2019-05-03T12:10:31.969Z,12.08
2019-05-03T12:12:07.360Z,12.07
2019-05-03T12:13:18.058Z,12.29
2019-05-03T12:14:29.941Z,12.23
2019-05-03T12:15:40.144Z,12.29
2019-05-03T12:17:31.559Z,12.53
2019-05-03T12:18:59.399Z,12.75
2019-05-03T12:20:36.738Z,12.73
2019-05-03T12:21:54.169Z,12.83
2019-05-03T12:23:09.368Z,12.95
2019-05-03T12:24:26.367Z,12.93
2019-05-03T12:25:43.002Z,12.7
2019-05-03T12:26:58.260Z,12.44
2019-05-03T12:28:10.743Z,12.51
2019-05-03T12:29:24.462Z,12.75
2019-05-03T12:30:35.452Z,12.93
2019-05-03T12:31:48.022Z,13.2
2019-05-03T12:32:59.818Z,13.16
2019-05-03T12:34:11.341Z,13.27
2019-05-03T12:35:24.637Z,13.28
2019-05-03T12:36:41.165Z,13.17
2019-05-03T12:37:50.894Z,13.02
2019-05-03T12:39:05.534Z,12.95
2019-05-03T12:40:37.508Z,12.66
2019-05-03T12:41:48.153Z,12.47
2019-05-03T12:43:00.326Z,12.32
2019-05-03T12:44:11.467Z,12.37
2019-05-03T12:45:24.705Z,12.37
2019-05-03T12:46:35.379Z,12.37
2019-05-03T12:47:47.638Z,12.37
2019-05-03T12:48:57.107Z,12.32
2019-05-03T12:50:07.819Z,12.28
2019-05-03T12:51:20.105Z,12.18
2019-05-03T12:52:35.239Z,12.15
2019-05-03T12:53:57.669Z,12.02
2019-05-03T12:55:10.053Z,12.02
2019-05-03T12:56:35.772Z,12.05
2019-05-03T12:57:45.838Z,12.23
2019-05-03T12:58:57.649Z,12.1
2019-05-03T13:00:09.770Z,12.05
2019-05-03T13:01:20.654Z,12
2019-05-03T13:02:47.083Z,12.02
2019-05-03T13:03:57.873Z,12.02
2019-05-03T13:05:09.624Z,12.02
2019-05-03T13:06:20.577Z,12.17
2019-05-03T13:07:30.728Z,12.36
2019-05-03T13:08:42.584Z,12.63
2019-05-03T13:09:54.467Z,12.88
2019-05-03T13:11:05.210Z,12.9
2019-05-03T13:12:17.160Z,13.12
2019-05-03T13:13:27.465Z,13.2
2019-05-03T13:14:39.429Z,13.33
2019-05-03T13:15:50.703Z,13.49
2019-05-03T13:17:04.621Z,13.76
2019-05-03T13:18:18.122Z,13.76
2019-05-03T13:19:30.639Z,13.98
2019-05-03T13:20:42.599Z,14.11
2019-05-03T13:21:53.080Z,14.31
2019-05-03T13:23:05.419Z,14.33
2019-05-03T13:24:28.513Z,14.45
2019-05-03T13:25:40.498Z,14.44
2019-05-03T13:26:52.320Z,14.31
2019-05-03T13:28:02.322Z,14.05
2019-05-03T13:29:15.137Z,13.5
2019-05-03T13:30:27.441Z,13.23
2019-05-03T13:31:39.753Z,13.06
2019-05-03T13:33:08.252Z,12.86
2019-05-03T13:34:20.772Z,12.76
2019-05-03T13:35:32.482Z,12.53
2019-05-03T13:36:42.912Z,12.3
2019-05-03T13:37:53.181Z,12.21
2019-05-03T13:39:18.484Z,12.25
2019-05-03T13:40:31.670Z,12.17
2019-05-03T13:41:45.338Z,12
2019-05-03T13:43:08.466Z,11.93
2019-05-03T13:44:20.571Z,11.83
2019-05-03T13:45:32.355Z,11.67
2019-05-03T13:46:44.484Z,11.55
2019-05-03T13:47:55.226Z,11.55
2019-05-03T13:49:05.441Z,11.48
2019-05-03T13:50:17.632Z,11.48
2019-05-03T13:51:29.973Z,11.33
2019-05-03T13:52:40.843Z,11.26
2019-05-03T13:53:54.892Z,11.31
2019-05-03T13:55:05.378Z,11.41
2019-05-03T13:56:17.630Z,11.44
2019-05-03T13:57:29.657Z,11.59
2019-05-03T13:58:40.863Z,11.6
2019-05-03T13:59:52.221Z,11.65
2019-05-03T14:01:03.377Z,11.67
2019-05-03T14:02:21.701Z,11.74
2019-05-03T14:03:31.668Z,11.97
2019-05-03T14:04:55.680Z,12.03
2019-05-03T14:06:10.477Z,12.23
2019-05-03T14:07:20.509Z,12.3
2019-05-03T14:08:30.452Z,12.43
2019-05-03T14:09:42.558Z,12.45
2019-05-03T14:10:52.720Z,12.37
2019-05-03T14:12:05.583Z,12.32
2019-05-03T14:13:17.055Z,12.37
2019-05-03T14:14:28.344Z,12.51
2019-05-03T14:15:39.933Z,12.62
2019-05-03T14:16:50.385Z,12.87
2019-05-03T14:18:02.428Z,12.94
2019-05-03T14:19:14.645Z,13.23
2019-05-03T14:20:26.175Z,13.46
2019-05-03T14:21:37.050Z,13.68
2019-05-03T14:22:46.756Z,13.5
2019-05-03T14:23:56.728Z,13.5
2019-05-03T14:25:07.054Z,13.37
2019-05-03T14:26:17.536Z,13.37
2019-05-03T14:27:30.229Z,13.55
2019-05-03T14:28:42.430Z,13.43
2019-05-03T14:29:54.796Z,12.94
2019-05-03T14:31:05.191Z,12.99
2019-05-03T14:32:28.957Z,12.9
2019-05-03T14:33:41.154Z,12.73
2019-05-03T14:34:54.579Z,12.72
2019-05-03T14:36:05.276Z,12.54
2019-05-03T14:37:15.339Z,12.51
2019-05-03T14:38:27.799Z,12.44
2019-05-03T14:39:37.781Z,12.36
2019-05-03T14:40:50.023Z,12.21
2019-05-03T14:42:04.655Z,12.25
2019-05-03T14:43:15.391Z,12.23
2019-05-03T14:44:27.623Z,12.05
2019-05-03T14:45:39.543Z,11.97
2019-05-03T14:46:50.798Z,11.86
2019-05-03T14:48:08.685Z,11.83
2019-05-03T14:49:20.544Z,11.59
2019-05-03T14:50:30.835Z,11.49
2019-05-03T14:51:42.719Z,11.4
2019-05-03T14:52:54.569Z,11.23
2019-05-03T14:54:07.926Z,11.18
2019-05-03T14:55:19.677Z,11.1
2019-05-03T14:56:30.468Z,11.15
2019-05-03T14:57:44.464Z,11.1
2019-05-03T14:58:55.990Z,11.07
2019-05-03T15:00:06.047Z,11.05
2019-05-03T15:01:17.924Z,11
2019-05-03T15:02:47.361Z,10.92
2019-05-03T15:04:02.978Z,10.97
2019-05-03T15:05:14.877Z,11.07
2019-05-03T15:06:27.090Z,11
2019-05-03T15:07:37.615Z,10.98
2019-05-03T15:08:47.582Z,11.07
2019-05-03T15:09:59.973Z,11.01
2019-05-03T15:11:10.899Z,10.98
2019-05-03T15:12:22.531Z,11
2019-05-03T15:13:34.861Z,10.9
2019-05-03T15:14:45.178Z,10.89
2019-05-03T15:15:57.223Z,10.97
2019-05-03T15:17:07.792Z,11.02
2019-05-03T15:18:19.642Z,10.94
2019-05-03T15:19:30.633Z,10.97
2019-05-03T15:20:45.300Z,10.97
2019-05-03T15:21:57.104Z,11
2019-05-03T15:23:07.806Z,11.01
2019-05-03T15:24:19.843Z,10.94
2019-05-03T15:25:30.484Z,10.92
2019-05-03T15:26:42.244Z,11
2019-05-03T15:27:55.252Z,10.86
2019-05-03T15:29:07.234Z,10.79
2019-05-03T15:30:18.018Z,10.82
2019-05-03T15:31:29.422Z,10.76
2019-05-03T15:32:53.439Z,10.84
2019-05-03T15:34:10.328Z,10.9
2019-05-03T15:35:20.551Z,10.97
2019-05-03T15:36:31.192Z,10.89
2019-05-03T15:37:40.887Z,10.84
2019-05-03T15:38:52.808Z,10.82
2019-05-03T15:40:05.506Z,10.71
2019-05-03T15:41:17.159Z,10.69
2019-05-03T15:42:26.869Z,10.67
2019-05-03T15:43:37.054Z,10.8
2019-05-03T15:44:47.462Z,10.86
2019-05-03T15:45:59.494Z,10.8
2019-05-03T15:47:17.181Z,10.86
2019-05-03T15:48:27.082Z,10.82
2019-05-03T15:49:38.086Z,10.79
2019-05-03T15:50:49.477Z,10.72
2019-05-03T15:52:00.811Z,10.68
2019-05-03T15:53:12.406Z,10.79
2019-05-03T15:54:24.540Z,10.79
2019-05-03T15:55:34.581Z,10.65
2019-05-03T15:56:44.875Z,10.49
2019-05-03T15:57:55.250Z,10.53